sensor_id;sensor_type;location;lat;lon;timestamp;pressure;altitude;pressure_sealevel;temperature;humidity
76460;BME280;65299;46.084;18.762;2023-06-04T00:00:55;100847.34;;;14.67;65.17
76460;BME280;65299;46.084;18.762;2023-06-04T00:03:55;100847.38;;;14.62;65.21
76460;BME280;65299;46.084;18.762;2023-06-04T00:06:55;100850.56;;;14.64;64.97
76460;BME280;65299;46.084;18.762;2023-06-04T00:09:56;100844.44;;;14.64;64.38
76460;BME280;65299;46.084;18.762;2023-06-04T00:12:57;100850.09;;;14.57;65.12
76460;BME280;65299;46.084;18.762;2023-06-04T00:15:57;100845.78;;;14.56;65.12
76460;BME280;65299;46.084;18.762;2023-06-04T00:18:57;100849.31;;;14.47;65.75
76460;BME280;65299;46.084;18.762;2023-06-04T00:21:58;100848.47;;;14.56;65.62
76460;BME280;65299;46.084;18.762;2023-06-04T00:24:58;100838.94;;;14.40;66.70
76460;BME280;65299;46.084;18.762;2023-06-04T00:27:58;100838.59;;;14.52;65.81
76460;BME280;65299;46.084;18.762;2023-06-04T00:30:59;100840.03;;;14.34;66.18
76460;BME280;65299;46.084;18.762;2023-06-04T00:33:59;100834.16;;;14.32;66.20
76460;BME280;65299;46.084;18.762;2023-06-04T00:37:00;100834.69;;;14.34;67.23
76460;BME280;65299;46.084;18.762;2023-06-04T00:40:01;100833.25;;;14.52;65.67
76460;BME280;65299;46.084;18.762;2023-06-04T00:43:02;100836.31;;;14.35;66.32
76460;BME280;65299;46.084;18.762;2023-06-04T00:46:03;100835.72;;;14.43;67.31
76460;BME280;65299;46.084;18.762;2023-06-04T00:49:05;100829.25;;;14.54;65.72
76460;BME280;65299;46.084;18.762;2023-06-04T00:52:06;100826.94;;;14.38;66.65
76460;BME280;65299;46.084;18.762;2023-06-04T00:55:07;100826.94;;;14.28;67.35
76460;BME280;65299;46.084;18.762;2023-06-04T00:58:08;100823.53;;;14.12;67.46
76460;BME280;65299;46.084;18.762;2023-06-04T01:01:23;100833.97;;;14.03;68.66
76460;BME280;65299;46.084;18.762;2023-06-04T01:04:34;100831.03;;;14.10;68.13
76460;BME280;65299;46.084;18.762;2023-06-04T01:07:37;100830.22;;;14.14;67.91
76460;BME280;65299;46.084;18.762;2023-06-04T01:10:37;100828.88;;;14.07;67.21
76460;BME280;65299;46.084;18.762;2023-06-04T01:13:38;100826.78;;;14.04;68.34
76460;BME280;65299;46.084;18.762;2023-06-04T01:16:53;100823.34;;;13.98;67.76
76460;BME280;65299;46.084;18.762;2023-06-04T01:20:07;100824.97;;;13.84;68.50
76460;BME280;65299;46.084;18.762;2023-06-04T01:26:31;100822.03;;;13.86;67.77
76460;BME280;65299;46.084;18.762;2023-06-04T01:29:31;100831.63;;;13.87;67.69
76460;BME280;65299;46.084;18.762;2023-06-04T01:32:33;100828.16;;;13.91;68.48
76460;BME280;65299;46.084;18.762;2023-06-04T01:35:33;100823.06;;;13.95;67.67
76460;BME280;65299;46.084;18.762;2023-06-04T01:38:34;100837.53;;;13.74;67.77
76460;BME280;65299;46.084;18.762;2023-06-04T01:41:34;100841.25;;;13.73;68.42
76460;BME280;65299;46.084;18.762;2023-06-04T01:44:35;100833.28;;;13.68;68.81
76460;BME280;65299;46.084;18.762;2023-06-04T01:47:35;100833.00;;;13.69;68.51
76460;BME280;65299;46.084;18.762;2023-06-04T01:50:36;100841.84;;;13.40;69.23
76460;BME280;65299;46.084;18.762;2023-06-04T01:53:36;100852.75;;;13.58;68.90
76460;BME280;65299;46.084;18.762;2023-06-04T01:56:37;100850.63;;;13.55;69.02
76460;BME280;65299;46.084;18.762;2023-06-04T01:59:37;100850.09;;;13.63;69.37
76460;BME280;65299;46.084;18.762;2023-06-04T02:02:41;100851.41;;;13.76;68.21
76460;BME280;65299;46.084;18.762;2023-06-04T02:05:42;100845.81;;;13.67;67.23
76460;BME280;65299;46.084;18.762;2023-06-04T02:08:44;100859.94;;;13.73;66.78
76460;BME280;65299;46.084;18.762;2023-06-04T02:11:45;100856.22;;;13.49;67.64
76460;BME280;65299;46.084;18.762;2023-06-04T02:14:45;100867.69;;;13.39;67.84
76460;BME280;65299;46.084;18.762;2023-06-04T02:17:47;100867.94;;;13.53;67.90
76460;BME280;65299;46.084;18.762;2023-06-04T02:20:49;100867.69;;;13.44;67.07
76460;BME280;65299;46.084;18.762;2023-06-04T02:23:50;100868.75;;;13.38;67.74
76460;BME280;65299;46.084;18.762;2023-06-04T02:26:50;100870.09;;;13.41;68.14
76460;BME280;65299;46.084;18.762;2023-06-04T02:29:51;100863.16;;;13.29;67.90
76460;BME280;65299;46.084;18.762;2023-06-04T02:32:51;100860.47;;;13.04;68.34
76460;BME280;65299;46.084;18.762;2023-06-04T02:35:51;100868.97;;;13.01;68.09
76460;BME280;65299;46.084;18.762;2023-06-04T02:38:52;100868.47;;;13.09;67.46
76460;BME280;65299;46.084;18.762;2023-06-04T02:41:52;100868.47;;;13.09;67.45
76460;BME280;65299;46.084;18.762;2023-06-04T02:44:53;100867.09;;;13.02;67.57
76460;BME280;65299;46.084;18.762;2023-06-04T02:47:53;100872.94;;;12.94;67.92
76460;BME280;65299;46.084;18.762;2023-06-04T02:50:53;100868.72;;;13.03;68.49
76460;BME280;65299;46.084;18.762;2023-06-04T02:53:54;100864.19;;;12.98;68.29
76460;BME280;65299;46.084;18.762;2023-06-04T02:56:55;100874.28;;;12.96;68.64
76460;BME280;65299;46.084;18.762;2023-06-04T02:59:56;100880.94;;;12.94;68.60
76460;BME280;65299;46.084;18.762;2023-06-04T03:02:56;100884.38;;;12.89;69.14
76460;BME280;65299;46.084;18.762;2023-06-04T03:06:01;100886.06;;;13.05;68.31
76460;BME280;65299;46.084;18.762;2023-06-04T03:09:05;100876.69;;;12.98;67.50
76460;BME280;65299;46.084;18.762;2023-06-04T03:12:05;100883.34;;;12.95;68.28
76460;BME280;65299;46.084;18.762;2023-06-04T03:15:06;100876.38;;;12.79;67.95
76460;BME280;65299;46.084;18.762;2023-06-04T03:18:07;100879.88;;;13.00;66.58
76460;BME280;65299;46.084;18.762;2023-06-04T03:21:08;100880.75;;;13.10;67.04
76460;BME280;65299;46.084;18.762;2023-06-04T03:24:09;100883.09;;;12.97;66.36
76460;BME280;65299;46.084;18.762;2023-06-04T03:27:10;100881.50;;;13.01;67.10
76460;BME280;65299;46.084;18.762;2023-06-04T03:30:11;100878.06;;;13.05;66.76
76460;BME280;65299;46.084;18.762;2023-06-04T03:33:11;100889.19;;;12.97;68.11
76460;BME280;65299;46.084;18.762;2023-06-04T03:36:11;100886.31;;;13.04;67.26
76460;BME280;65299;46.084;18.762;2023-06-04T03:39:12;100895.66;;;13.06;66.86
76460;BME280;65299;46.084;18.762;2023-06-04T03:42:12;100887.94;;;13.10;66.95
76460;BME280;65299;46.084;18.762;2023-06-04T03:45:13;100886.59;;;13.27;66.74
76460;BME280;65299;46.084;18.762;2023-06-04T03:48:13;100891.69;;;13.49;65.06
76460;BME280;65299;46.084;18.762;2023-06-04T03:51:14;100889.81;;;13.35;66.35
76460;BME280;65299;46.084;18.762;2023-06-04T03:54:14;100888.47;;;13.67;64.79
76460;BME280;65299;46.084;18.762;2023-06-04T03:57:17;100893.53;;;13.94;63.91
76460;BME280;65299;46.084;18.762;2023-06-04T04:00:18;100888.09;;;14.24;63.24
76460;BME280;65299;46.084;18.762;2023-06-04T04:03:20;100888.81;;;14.50;63.59
76460;BME280;65299;46.084;18.762;2023-06-04T04:06:22;100884.13;;;14.85;62.54
76460;BME280;65299;46.084;18.762;2023-06-04T04:09:22;100894.91;;;15.14;62.02
76460;BME280;65299;46.084;18.762;2023-06-04T04:12:22;100894.66;;;15.11;61.51
76460;BME280;65299;46.084;18.762;2023-06-04T04:15:23;100904.28;;;15.50;60.07
76460;BME280;65299;46.084;18.762;2023-06-04T04:18:24;100901.66;;;15.74;59.12
76460;BME280;65299;46.084;18.762;2023-06-04T04:21:24;100908.41;;;16.00;58.92
76460;BME280;65299;46.084;18.762;2023-06-04T04:24:26;100904.16;;;16.41;55.31
76460;BME280;65299;46.084;18.762;2023-06-04T04:27:28;100901.97;;;16.91;55.77
76460;BME280;65299;46.084;18.762;2023-06-04T04:30:30;100902.09;;;16.81;52.04
76460;BME280;65299;46.084;18.762;2023-06-04T04:33:33;100906.94;;;17.34;51.57
76460;BME280;65299;46.084;18.762;2023-06-04T04:36:39;100899.69;;;17.54;49.96
76460;BME280;65299;46.084;18.762;2023-06-04T04:39:40;100909.69;;;17.48;47.74
76460;BME280;65299;46.084;18.762;2023-06-04T04:42:41;100900.31;;;16.52;48.12
76460;BME280;65299;46.084;18.762;2023-06-04T04:45:42;100902.19;;;16.76;47.39
76460;BME280;65299;46.084;18.762;2023-06-04T04:48:42;100909.53;;;17.39;47.53
76460;BME280;65299;46.084;18.762;2023-06-04T04:51:43;100897.88;;;16.75;45.87
76460;BME280;65299;46.084;18.762;2023-06-04T04:54:43;100905.63;;;16.76;47.11
76460;BME280;65299;46.084;18.762;2023-06-04T04:57:44;100910.91;;;17.37;46.90
76460;BME280;65299;46.084;18.762;2023-06-04T05:00:44;100915.63;;;17.45;45.74
76460;BME280;65299;46.084;18.762;2023-06-04T05:03:45;100913.22;;;17.62;45.58
76460;BME280;65299;46.084;18.762;2023-06-04T05:06:46;100922.53;;;17.51;44.69
76460;BME280;65299;46.084;18.762;2023-06-04T05:09:46;100921.97;;;17.17;45.31
76460;BME280;65299;46.084;18.762;2023-06-04T05:12:54;100919.78;;;17.37;46.03
76460;BME280;65299;46.084;18.762;2023-06-04T05:15:55;100924.28;;;18.20;44.50
76460;BME280;65299;46.084;18.762;2023-06-04T05:18:56;100923.56;;;17.87;45.34
76460;BME280;65299;46.084;18.762;2023-06-04T05:21:57;100919.78;;;17.56;45.79
76460;BME280;65299;46.084;18.762;2023-06-04T05:24:57;100923.41;;;17.47;46.55
76460;BME280;65299;46.084;18.762;2023-06-04T05:27:59;100920.78;;;17.60;46.49
76460;BME280;65299;46.084;18.762;2023-06-04T05:31:00;100927.31;;;17.54;46.59
76460;BME280;65299;46.084;18.762;2023-06-04T05:34:01;100928.78;;;17.65;46.63
76460;BME280;65299;46.084;18.762;2023-06-04T05:37:04;100929.84;;;17.64;46.96
76460;BME280;65299;46.084;18.762;2023-06-04T05:40:09;100930.97;;;18.36;46.87
76460;BME280;65299;46.084;18.762;2023-06-04T05:43:09;100928.09;;;17.73;47.13
76460;BME280;65299;46.084;18.762;2023-06-04T05:46:10;100929.81;;;17.96;48.09
76460;BME280;65299;46.084;18.762;2023-06-04T05:49:11;100931.38;;;18.30;48.40
76460;BME280;65299;46.084;18.762;2023-06-04T05:52:11;100936.97;;;18.60;47.94
76460;BME280;65299;46.084;18.762;2023-06-04T05:55:12;100938.97;;;19.18;46.90
76460;BME280;65299;46.084;18.762;2023-06-04T05:58:12;100938.09;;;19.44;47.86
76460;BME280;65299;46.084;18.762;2023-06-04T06:01:12;100941.94;;;19.16;46.73
76460;BME280;65299;46.084;18.762;2023-06-04T06:04:13;100946.78;;;19.63;44.47
76460;BME280;65299;46.084;18.762;2023-06-04T06:07:14;100944.22;;;19.36;46.09
76460;BME280;65299;46.084;18.762;2023-06-04T06:10:15;100941.69;;;19.62;45.30
76460;BME280;65299;46.084;18.762;2023-06-04T06:13:15;100949.06;;;18.98;45.95
76460;BME280;65299;46.084;18.762;2023-06-04T06:16:16;100950.88;;;19.25;46.00
76460;BME280;65299;46.084;18.762;2023-06-04T06:19:17;100952.09;;;18.70;46.48
76460;BME280;65299;46.084;18.762;2023-06-04T06:22:18;100951.94;;;19.02;45.22
76460;BME280;65299;46.084;18.762;2023-06-04T06:25:18;100954.25;;;19.31;45.33
76460;BME280;65299;46.084;18.762;2023-06-04T06:28:19;100965.06;;;19.17;44.18
76460;BME280;65299;46.084;18.762;2023-06-04T06:31:19;100965.25;;;19.78;43.45
76460;BME280;65299;46.084;18.762;2023-06-04T06:34:20;100967.53;;;19.85;42.64
76460;BME280;65299;46.084;18.762;2023-06-04T06:37:20;100966.06;;;20.32;42.16
76460;BME280;65299;46.084;18.762;2023-06-04T06:40:21;100971.00;;;19.85;43.53
76460;BME280;65299;46.084;18.762;2023-06-04T06:43:21;100962.53;;;20.23;41.96
76460;BME280;65299;46.084;18.762;2023-06-04T06:46:22;100956.97;;;20.19;42.48
76460;BME280;65299;46.084;18.762;2023-06-04T06:49:22;100966.72;;;20.37;42.57
76460;BME280;65299;46.084;18.762;2023-06-04T06:52:22;100961.28;;;20.29;44.21
76460;BME280;65299;46.084;18.762;2023-06-04T06:55:23;100963.28;;;20.54;43.18
76460;BME280;65299;46.084;18.762;2023-06-04T06:58:23;100958.41;;;20.73;43.21
76460;BME280;65299;46.084;18.762;2023-06-04T07:01:24;100953.13;;;21.07;42.66
76460;BME280;65299;46.084;18.762;2023-06-04T07:04:24;100954.94;;;20.81;43.30
76460;BME280;65299;46.084;18.762;2023-06-04T07:07:26;100948.03;;;20.19;43.38
76460;BME280;65299;46.084;18.762;2023-06-04T07:10:26;100953.16;;;20.59;43.39
76460;BME280;65299;46.084;18.762;2023-06-04T07:13:27;100951.44;;;20.72;43.21
76460;BME280;65299;46.084;18.762;2023-06-04T07:16:28;100947.09;;;21.27;42.03
76460;BME280;65299;46.084;18.762;2023-06-04T07:19:29;100954.25;;;21.23;41.58
76460;BME280;65299;46.084;18.762;2023-06-04T07:22:29;100950.25;;;21.12;41.93
76460;BME280;65299;46.084;18.762;2023-06-04T07:25:30;100960.94;;;20.70;42.64
76460;BME280;65299;46.084;18.762;2023-06-04T07:28:30;100952.31;;;21.41;41.12
76460;BME280;65299;46.084;18.762;2023-06-04T07:31:31;100962.63;;;21.82;40.50
76460;BME280;65299;46.084;18.762;2023-06-04T07:34:32;100957.53;;;21.89;40.54
76460;BME280;65299;46.084;18.762;2023-06-04T07:37:32;100966.28;;;21.94;41.43
76460;BME280;65299;46.084;18.762;2023-06-04T07:40:33;100965.84;;;21.50;40.05
76460;BME280;65299;46.084;18.762;2023-06-04T07:43:34;100962.13;;;21.97;39.89
76460;BME280;65299;46.084;18.762;2023-06-04T07:46:37;100957.97;;;22.08;39.84
76460;BME280;65299;46.084;18.762;2023-06-04T07:49:37;100953.97;;;22.14;40.14
76460;BME280;65299;46.084;18.762;2023-06-04T07:52:38;100958.56;;;22.89;37.79
76460;BME280;65299;46.084;18.762;2023-06-04T07:55:38;100970.59;;;23.00;39.71
76460;BME280;65299;46.084;18.762;2023-06-04T07:58:39;100964.19;;;23.04;39.00
76460;BME280;65299;46.084;18.762;2023-06-04T08:01:39;100970.66;;;22.91;37.81
76460;BME280;65299;46.084;18.762;2023-06-04T08:04:40;100965.59;;;23.31;37.94
76460;BME280;65299;46.084;18.762;2023-06-04T08:07:40;100960.28;;;23.14;37.71
76460;BME280;65299;46.084;18.762;2023-06-04T08:10:42;100954.94;;;22.47;39.00
76460;BME280;65299;46.084;18.762;2023-06-04T08:13:42;100961.88;;;23.15;37.86
76460;BME280;65299;46.084;18.762;2023-06-04T08:16:43;100950.22;;;22.73;37.01
76460;BME280;65299;46.084;18.762;2023-06-04T08:19:43;100957.47;;;23.11;36.86
76460;BME280;65299;46.084;18.762;2023-06-04T08:22:44;100951.59;;;23.08;37.07
76460;BME280;65299;46.084;18.762;2023-06-04T08:25:44;100948.88;;;23.50;36.29
76460;BME280;65299;46.084;18.762;2023-06-04T08:28:48;100950.91;;;23.12;36.74
76460;BME280;65299;46.084;18.762;2023-06-04T08:31:51;100949.28;;;23.72;37.56
76460;BME280;65299;46.084;18.762;2023-06-04T08:34:52;100953.78;;;23.36;35.92
76460;BME280;65299;46.084;18.762;2023-06-04T08:37:52;100953.97;;;23.31;35.44
76460;BME280;65299;46.084;18.762;2023-06-04T08:40:53;100950.00;;;24.26;35.04
76460;BME280;65299;46.084;18.762;2023-06-04T08:43:58;100945.91;;;23.43;36.17
76460;BME280;65299;46.084;18.762;2023-06-04T08:47:05;100947.16;;;23.04;34.64
76460;BME280;65299;46.084;18.762;2023-06-04T08:50:09;100940.03;;;24.18;33.50
76460;BME280;65299;46.084;18.762;2023-06-04T08:53:11;100939.25;;;24.66;33.78
76460;BME280;65299;46.084;18.762;2023-06-04T08:56:13;100938.22;;;24.70;33.52
76460;BME280;65299;46.084;18.762;2023-06-04T08:59:14;100940.59;;;24.96;33.05
76460;BME280;65299;46.084;18.762;2023-06-04T09:02:15;100943.84;;;25.14;33.60
76460;BME280;65299;46.084;18.762;2023-06-04T09:05:20;100946.34;;;25.46;32.61
76460;BME280;65299;46.084;18.762;2023-06-04T09:08:22;100945.63;;;25.22;31.98
76460;BME280;65299;46.084;18.762;2023-06-04T09:11:37;100946.78;;;25.48;32.97
76460;BME280;65299;46.084;18.762;2023-06-04T09:14:39;100940.63;;;25.24;32.10
76460;BME280;65299;46.084;18.762;2023-06-04T09:17:39;100954.16;;;25.08;33.30
76460;BME280;65299;46.084;18.762;2023-06-04T09:20:40;100952.75;;;25.54;32.19
76460;BME280;65299;46.084;18.762;2023-06-04T09:23:45;100954.59;;;25.50;32.59
76460;BME280;65299;46.084;18.762;2023-06-04T09:26:46;100957.69;;;25.64;32.70
76460;BME280;65299;46.084;18.762;2023-06-04T09:29:50;100949.56;;;26.07;34.21
76460;BME280;65299;46.084;18.762;2023-06-04T09:32:52;100958.53;;;25.80;31.88
76460;BME280;65299;46.084;18.762;2023-06-04T09:35:54;100951.31;;;25.72;32.10
76460;BME280;65299;46.084;18.762;2023-06-04T09:38:55;100955.34;;;25.78;32.39
76460;BME280;65299;46.084;18.762;2023-06-04T09:41:59;100951.22;;;25.69;32.73
76460;BME280;65299;46.084;18.762;2023-06-04T09:45:01;100954.63;;;25.66;31.75
76460;BME280;65299;46.084;18.762;2023-06-04T09:48:03;100952.94;;;26.04;32.03
76460;BME280;65299;46.084;18.762;2023-06-04T09:51:14;100937.19;;;25.67;32.58
76460;BME280;65299;46.084;18.762;2023-06-04T09:54:20;100943.72;;;25.93;33.46
76460;BME280;65299;46.084;18.762;2023-06-04T09:57:20;100950.66;;;26.06;32.16
76460;BME280;65299;46.084;18.762;2023-06-04T10:00:22;100948.69;;;26.35;31.35
76460;BME280;65299;46.084;18.762;2023-06-04T10:03:25;100931.44;;;25.84;32.44
76460;BME280;65299;46.084;18.762;2023-06-04T10:06:32;100930.22;;;26.12;31.93
76460;BME280;65299;46.084;18.762;2023-06-04T10:09:34;100935.66;;;25.81;33.96
76460;BME280;65299;46.084;18.762;2023-06-04T10:12:37;100935.06;;;25.60;32.48
76460;BME280;65299;46.084;18.762;2023-06-04T10:15:37;100937.63;;;26.12;32.29
76460;BME280;65299;46.084;18.762;2023-06-04T10:18:39;100934.25;;;26.50;32.09
76460;BME280;65299;46.084;18.762;2023-06-04T10:21:39;100930.34;;;26.16;32.90
76460;BME280;65299;46.084;18.762;2023-06-04T10:24:40;100922.44;;;26.11;32.25
76460;BME280;65299;46.084;18.762;2023-06-04T10:27:40;100922.53;;;26.30;32.43
76460;BME280;65299;46.084;18.762;2023-06-04T10:30:41;100920.06;;;26.41;31.91
76460;BME280;65299;46.084;18.762;2023-06-04T10:33:41;100919.91;;;26.18;32.15
76460;BME280;65299;46.084;18.762;2023-06-04T10:36:43;100923.44;;;26.06;33.25
76460;BME280;65299;46.084;18.762;2023-06-04T10:39:51;100922.25;;;26.70;31.01
76460;BME280;65299;46.084;18.762;2023-06-04T10:42:52;100915.47;;;26.45;32.23
76460;BME280;65299;46.084;18.762;2023-06-04T10:45:54;100923.50;;;27.07;32.66
76460;BME280;65299;46.084;18.762;2023-06-04T10:48:54;100916.59;;;25.97;33.55
76460;BME280;65299;46.084;18.762;2023-06-04T10:51:55;100912.91;;;26.05;32.87
76460;BME280;65299;46.084;18.762;2023-06-04T10:55:03;100910.41;;;26.12;33.51
76460;BME280;65299;46.084;18.762;2023-06-04T10:58:04;100906.59;;;26.01;33.66
76460;BME280;65299;46.084;18.762;2023-06-04T11:01:06;100905.91;;;26.70;33.07
76460;BME280;65299;46.084;18.762;2023-06-04T11:04:06;100909.84;;;26.38;33.78
76460;BME280;65299;46.084;18.762;2023-06-04T11:07:07;100907.13;;;26.88;33.31
76460;BME280;65299;46.084;18.762;2023-06-04T11:10:14;100905.78;;;26.97;33.28
76460;BME280;65299;46.084;18.762;2023-06-04T11:13:15;100904.91;;;26.74;32.87
76460;BME280;65299;46.084;18.762;2023-06-04T11:16:19;100899.81;;;26.73;32.86
76460;BME280;65299;46.084;18.762;2023-06-04T11:19:20;100894.41;;;26.42;33.89
76460;BME280;65299;46.084;18.762;2023-06-04T11:22:21;100901.97;;;27.02;33.48
76460;BME280;65299;46.084;18.762;2023-06-04T11:25:24;100896.66;;;26.90;34.14
76460;BME280;65299;46.084;18.762;2023-06-04T11:28:26;100893.41;;;26.65;34.20
76460;BME280;65299;46.084;18.762;2023-06-04T11:31:27;100889.59;;;26.70;33.56
76460;BME280;65299;46.084;18.762;2023-06-04T11:34:29;100877.50;;;25.86;35.25
76460;BME280;65299;46.084;18.762;2023-06-04T11:37:30;100878.47;;;26.24;33.82
76460;BME280;65299;46.084;18.762;2023-06-04T11:40:32;100878.13;;;26.61;34.24
76460;BME280;65299;46.084;18.762;2023-06-04T11:43:33;100871.97;;;26.13;35.44
76460;BME280;65299;46.084;18.762;2023-06-04T11:46:35;100876.25;;;26.30;36.09
76460;BME280;65299;46.084;18.762;2023-06-04T11:49:39;100866.84;;;27.16;34.76
76460;BME280;65299;46.084;18.762;2023-06-04T11:52:41;100878.31;;;27.25;33.89
76460;BME280;65299;46.084;18.762;2023-06-04T11:55:41;100882.16;;;27.62;33.92
76460;BME280;65299;46.084;18.762;2023-06-04T11:58:42;100883.25;;;27.00;34.22
76460;BME280;65299;46.084;18.762;2023-06-04T12:01:45;100868.91;;;27.23;34.30
76460;BME280;65299;46.084;18.762;2023-06-04T12:04:45;100865.84;;;27.66;33.41
76460;BME280;65299;46.084;18.762;2023-06-04T12:07:47;100869.84;;;27.49;33.95
76460;BME280;65299;46.084;18.762;2023-06-04T12:10:51;100874.81;;;27.44;33.59
76460;BME280;65299;46.084;18.762;2023-06-04T12:13:51;100866.84;;;27.35;34.16
76460;BME280;65299;46.084;18.762;2023-06-04T12:16:55;100864.41;;;26.73;35.05
76460;BME280;65299;46.084;18.762;2023-06-04T12:19:56;100854.81;;;26.79;34.37
76460;BME280;65299;46.084;18.762;2023-06-04T12:22:58;100851.34;;;26.82;35.22
76460;BME280;65299;46.084;18.762;2023-06-04T12:25:59;100844.63;;;27.14;35.18
76460;BME280;65299;46.084;18.762;2023-06-04T12:29:07;100842.88;;;27.25;35.50
76460;BME280;65299;46.084;18.762;2023-06-04T12:32:10;100840.44;;;27.39;34.63
76460;BME280;65299;46.084;18.762;2023-06-04T12:35:13;100838.13;;;27.86;35.30
76460;BME280;65299;46.084;18.762;2023-06-04T12:38:15;100834.09;;;27.77;36.13
76460;BME280;65299;46.084;18.762;2023-06-04T12:41:16;100838.00;;;27.79;35.05
76460;BME280;65299;46.084;18.762;2023-06-04T12:44:16;100845.78;;;28.26;34.61
76460;BME280;65299;46.084;18.762;2023-06-04T12:47:17;100832.88;;;27.97;34.35
76460;BME280;65299;46.084;18.762;2023-06-04T12:50:17;100837.84;;;27.46;35.39
76460;BME280;65299;46.084;18.762;2023-06-04T12:53:18;100828.44;;;27.44;35.67
76460;BME280;65299;46.084;18.762;2023-06-04T12:56:19;100825.78;;;27.47;36.52
76460;BME280;65299;46.084;18.762;2023-06-04T12:59:19;100825.31;;;27.64;36.01
76460;BME280;65299;46.084;18.762;2023-06-04T13:02:19;100816.25;;;28.32;35.74
76460;BME280;65299;46.084;18.762;2023-06-04T13:05:20;100817.41;;;28.05;35.52
76460;BME280;65299;46.084;18.762;2023-06-04T13:08:20;100819.69;;;28.29;34.94
76460;BME280;65299;46.084;18.762;2023-06-04T13:11:21;100822.03;;;28.01;35.06
76460;BME280;65299;46.084;18.762;2023-06-04T13:14:22;100814.63;;;28.01;34.70
76460;BME280;65299;46.084;18.762;2023-06-04T13:17:22;100818.06;;;27.75;35.67
76460;BME280;65299;46.084;18.762;2023-06-04T13:20:23;100825.25;;;27.19;36.42
76460;BME280;65299;46.084;18.762;2023-06-04T13:23:23;100819.31;;;27.14;35.64
76460;BME280;65299;46.084;18.762;2023-06-04T13:26:23;100815.75;;;27.32;35.43
76460;BME280;65299;46.084;18.762;2023-06-04T13:29:24;100807.47;;;27.93;35.12
76460;BME280;65299;46.084;18.762;2023-06-04T13:32:24;100824.91;;;27.88;35.51
76460;BME280;65299;46.084;18.762;2023-06-04T13:35:25;100821.44;;;28.14;35.74
76460;BME280;65299;46.084;18.762;2023-06-04T13:38:25;100816.88;;;28.22;35.28
76460;BME280;65299;46.084;18.762;2023-06-04T13:41:26;100816.44;;;27.94;35.25
76460;BME280;65299;46.084;18.762;2023-06-04T13:44:26;100814.72;;;28.08;34.99
76460;BME280;65299;46.084;18.762;2023-06-04T13:47:28;100813.13;;;28.59;34.21
76460;BME280;65299;46.084;18.762;2023-06-04T13:50:29;100819.13;;;28.42;34.43
76460;BME280;65299;46.084;18.762;2023-06-04T13:53:29;100814.34;;;28.62;33.22
76460;BME280;65299;46.084;18.762;2023-06-04T13:56:30;100816.03;;;28.44;34.59
76460;BME280;65299;46.084;18.762;2023-06-04T13:59:30;100810.06;;;28.09;36.03
76460;BME280;65299;46.084;18.762;2023-06-04T14:02:31;100813.72;;;27.48;37.15
76460;BME280;65299;46.084;18.762;2023-06-04T14:05:31;100812.50;;;27.91;36.75
76460;BME280;65299;46.084;18.762;2023-06-04T14:08:32;100811.69;;;28.13;35.96
76460;BME280;65299;46.084;18.762;2023-06-04T14:11:32;100813.31;;;28.18;35.95
76460;BME280;65299;46.084;18.762;2023-06-04T14:14:33;100798.31;;;27.82;36.32
76460;BME280;65299;46.084;18.762;2023-06-04T14:17:36;100796.25;;;27.30;37.05
76460;BME280;65299;46.084;18.762;2023-06-04T14:20:37;100791.97;;;27.74;36.94
76460;BME280;65299;46.084;18.762;2023-06-04T14:23:37;100799.75;;;28.25;36.55
76460;BME280;65299;46.084;18.762;2023-06-04T14:26:37;100799.25;;;28.45;34.95
76460;BME280;65299;46.084;18.762;2023-06-04T14:29:38;100801.88;;;30.29;31.58
76460;BME280;65299;46.084;18.762;2023-06-04T14:32:38;100792.03;;;31.14;30.57
76460;BME280;65299;46.084;18.762;2023-06-04T14:35:40;100796.59;;;33.41;28.37
76460;BME280;65299;46.084;18.762;2023-06-04T14:38:46;100789.94;;;33.38;26.72
76460;BME280;65299;46.084;18.762;2023-06-04T14:41:48;100791.94;;;32.58;27.69
76460;BME280;65299;46.084;18.762;2023-06-04T14:44:50;100787.03;;;34.38;25.50
76460;BME280;65299;46.084;18.762;2023-06-04T14:47:51;100775.72;;;33.47;27.02
76460;BME280;65299;46.084;18.762;2023-06-04T14:50:51;100780.28;;;31.06;30.62
76460;BME280;65299;46.084;18.762;2023-06-04T14:53:53;100777.72;;;28.66;34.61
76460;BME280;65299;46.084;18.762;2023-06-04T14:56:54;100770.47;;;31.02;30.73
76460;BME280;65299;46.084;18.762;2023-06-04T14:59:54;100775.91;;;32.46;29.36
76460;BME280;65299;46.084;18.762;2023-06-04T15:02:54;100770.91;;;33.58;26.29
76460;BME280;65299;46.084;18.762;2023-06-04T15:05:55;100764.22;;;34.03;26.40
76460;BME280;65299;46.084;18.762;2023-06-04T15:08:56;100767.81;;;33.53;27.46
76460;BME280;65299;46.084;18.762;2023-06-04T15:11:56;100765.16;;;34.87;25.80
76460;BME280;65299;46.084;18.762;2023-06-04T15:14:57;100762.63;;;34.06;26.72
76460;BME280;65299;46.084;18.762;2023-06-04T15:17:57;100759.03;;;33.68;26.80
76460;BME280;65299;46.084;18.762;2023-06-04T15:20:58;100762.66;;;33.62;25.42
76460;BME280;65299;46.084;18.762;2023-06-04T15:23:58;100761.22;;;33.87;25.21
76460;BME280;65299;46.084;18.762;2023-06-04T15:26:59;100768.88;;;35.04;24.58
76460;BME280;65299;46.084;18.762;2023-06-04T15:29:59;100756.94;;;35.60;24.18
76460;BME280;65299;46.084;18.762;2023-06-04T15:33:00;100762.69;;;34.93;25.34
76460;BME280;65299;46.084;18.762;2023-06-04T15:36:02;100758.50;;;34.21;25.87
76460;BME280;65299;46.084;18.762;2023-06-04T15:39:02;100762.66;;;33.62;27.33